Archival Weather

Sydney Intl

Sydney, Australia (YSSY)

Report from: Saturday, March 18, 2023 3:00 PM AEDT
Current time: Wednesday, July 17, 2024 1:25 AM AEST

Current weather – Weather history – Daily summaries
Weather forecast

Temperature29.0°C (84.2°F)
Heat index30.5°C (87.0°F)
Dew point19.0°C (66.2°F)
Winds 16 kts (8.2 m/s, 18.4 mph) Northeast (50°)
Clouds Sky clear
Altimeter30.00 in.Hg (1016 mB)
Relative humidity55 %
Density altitude1,815 ft. (553 m)
Remarks Ceiling and visibility OK
Flight conditions Visual Meteorological Conditions
Raw dataYSSY 180400Z 05016KT CAVOK 29/19 Q1016
An error has occurred. This application may no longer respond until reloaded. Reload 🗙